Columbus, Georgia
Current Conditions -  °F | °C
As of 6:51 AM on Friday 21 Nov 2014 (Local Time) from KCSG Reporting Station
Clear Clear  
Wind Chill:   Ceiling: Unl
Heat Index:   Visibility: 9mi
Dew Point:   Wind: 0mph
Humidity: 97%   Direction: NA
Pressure: 30.33"   Gusts: NA
Location:  32.51°N, 84.93°W
Report Text: KCSG 211151Z AUTO 00000KT 9SM CLR 03/03 A3033 RMK AO2 SLP272 7//// T00330028 10061 20028 53015
Loading
Personal Weather Stations






























Interactive Weather Map New forecast layout! Learn more

10-Day Weather Forecast

Advertisements
Track Severe Weather on mobile